Time;durP1;ratioP1;P1;durP2;ratioP2;P2;SDS_P1;SDS_P2;PMS_P1;PMS_P2;Temp;Humidity;BMP_temperature;BMP_pressure;BME280_temperature;BME280_humidity;BME280_pressure;Samples;Min_cycle;Max_cycle;Signal;HPM_P1;HPM_P2
2022/05/12 00:01:51;;;;;;;;;;;16.70;66.10;;;;;;5090240;28;20275;-71
2022/05/12 00:04:16;;;;;;;;;;;16.70;66.50;;;;;;5091746;28;19916;-72
2022/05/12 00:06:42;;;;;;;;;;;16.70;66.30;;;;;;5091553;28;19964;-71
2022/05/12 00:09:07;;;;;;;;;;;16.70;65.80;;;;;;5091673;28;20227;-71
2022/05/12 00:11:33;;;;;;;;;;;16.70;65.60;;;;;;5091525;28;20639;-71
2022/05/12 00:13:58;;;;;;;;;;;16.70;65.70;;;;;;5091747;28;19912;-69
2022/05/12 00:16:24;;;;;;;;;;;16.60;66.10;;;;;;5091194;28;19916;-70
2022/05/12 00:18:49;;;;;;;;;;;16.70;66.20;;;;;;5091692;28;19912;-71
2022/05/12 00:21:14;;;;;;;;;;;16.70;65.70;;;;;;5091298;28;19951;-71
2022/05/12 00:23:40;;;;;;;;;;;16.60;66.10;;;;;;5091434;28;20093;-71
2022/05/12 00:26:05;;;;;;;;;;;16.60;65.80;;;;;;5091114;28;19972;-71
2022/05/12 00:28:31;;;;;;;;;;;16.60;65.70;;;;;;5091454;28;19962;-72
2022/05/12 00:30:57;;;;;;;;;;;16.70;65.70;;;;;;5091377;28;19918;-71
2022/05/12 00:33:25;;;;;;;;;;;16.70;65.80;;;;;;5091411;28;19951;-70
2022/05/12 00:35:51;;;;;;;;;;;16.70;66.00;;;;;;5091393;28;19912;-70
2022/05/12 00:38:17;;;;;;;;;;;16.70;66.00;;;;;;5091284;28;20355;-69
2022/05/12 00:40:43;;;;;;;;;;;16.70;65.90;;;;;;5091303;28;19912;-70
2022/05/12 00:43:28;;;;;;;;;;;16.70;65.80;;;;;;5089767;28;20020;-70
2022/05/12 00:45:54;;;;;;;;;;;16.60;66.30;;;;;;5091032;28;19923;-71
2022/05/12 00:48:19;;;;;;;;;;;16.60;66.10;;;;;;5091108;28;19916;-70
2022/05/12 00:50:45;;;;;;;;;;;16.60;66.00;;;;;;5091038;28;19919;-70
2022/05/12 00:53:12;;;;;;;;;;;16.60;65.70;;;;;;5091050;28;20287;-72
2022/05/12 00:55:40;;;;;;;;;;;16.60;65.60;;;;;;5089601;28;19912;-71
2022/05/12 00:58:06;;;;;;;;;;;16.60;65.50;;;;;;5090913;28;19908;-71
2022/05/12 01:00:32;;;;;;;;;;;16.60;66.20;;;;;;5089544;28;19962;-71
2022/05/12 01:03:00;;;;;;;;;;;16.60;66.30;;;;;;5089541;28;20383;-70
2022/05/12 01:05:26;;;;;;;;;;;16.60;65.80;;;;;;5090820;28;19912;-72
2022/05/12 01:07:55;;;;;;;;;;;16.60;65.50;;;;;;5090937;28;19920;-71
2022/05/12 01:10:20;;;;;;;;;;;16.60;65.80;;;;;;5091096;28;19920;-71
2022/05/12 01:12:48;;;;;;;;;;;16.60;65.50;;;;;;5091049;28;20003;-70
2022/05/12 01:15:14;;;;;;;;;;;16.70;65.30;;;;;;5091417;28;19923;-71
2022/05/12 01:17:39;;;;;;;;;;;16.70;65.40;;;;;;5089721;28;19912;-71
2022/05/12 01:20:05;;;;;;;;;;;16.70;66.20;;;;;;5090877;28;20376;-71
2022/05/12 01:22:34;;;;;;;;;;;16.60;65.80;;;;;;5090841;28;20372;-71
2022/05/12 01:24:59;;;;;;;;;;;16.60;65.60;;;;;;5091072;28;19994;-71
2022/05/12 01:27:25;;;;;;;;;;;16.60;65.90;;;;;;5090564;28;19916;-70
2022/05/12 01:29:52;;;;;;;;;;;16.70;65.70;;;;;;5094798;28;19919;-69
2022/05/12 01:32:19;;;;;;;;;;;16.70;65.30;;;;;;5094566;28;19966;-70
2022/05/12 01:34:45;;;;;;;;;;;16.60;65.80;;;;;;5094711;28;19935;-71
2022/05/12 01:37:10;;;;;;;;;;;16.70;66.40;;;;;;5094169;28;19916;-71
2022/05/12 01:39:36;;;;;;;;;;;16.50;66.20;;;;;;5092971;28;20336;-70
2022/05/12 01:42:11;;;;;;;;;;;16.50;65.70;;;;;;5092862;28;20474;-70
2022/05/12 01:44:37;;;;;;;;;;;16.50;65.50;;;;;;5094381;28;20018;-70
2022/05/12 01:47:03;;;;;;;;;;;16.50;65.90;;;;;;5093963;28;19919;-70
2022/05/12 01:49:29;;;;;;;;;;;16.50;66.50;;;;;;5092708;28;19912;-71
2022/05/12 01:51:56;;;;;;;;;;;16.50;66.50;;;;;;5093996;28;19919;-71
2022/05/12 01:54:22;;;;;;;;;;;16.40;66.20;;;;;;5094364;28;20371;-70
2022/05/12 01:56:47;;;;;;;;;;;16.50;65.90;;;;;;5093933;28;19985;-71
2022/05/12 01:59:13;;;;;;;;;;;16.50;66.30;;;;;;5094021;28;19912;-71
2022/05/12 02:01:39;;;;;;;;;;;16.40;66.40;;;;;;5092353;28;20387;-71
2022/05/12 02:04:05;;;;;;;;;;;16.40;66.60;;;;;;5093978;28;19938;-70
2022/05/12 02:06:33;;;;;;;;;;;16.40;66.50;;;;;;5093540;28;19923;-71
2022/05/12 02:08:59;;;;;;;;;;;16.50;66.30;;;;;;5093504;28;19920;-71
2022/05/12 02:11:24;;;;;;;;;;;16.50;65.80;;;;;;5093515;28;19977;-71
2022/05/12 02:13:50;;;;;;;;;;;16.50;66.50;;;;;;5092248;28;20264;-71
2022/05/12 02:16:16;;;;;;;;;;;16.40;66.60;;;;;;5093515;28;20011;-70
2022/05/12 02:18:43;;;;;;;;;;;16.40;66.70;;;;;;5093602;28;20199;-70
2022/05/12 02:21:10;;;;;;;;;;;16.40;66.30;;;;;;5091093;28;22898;-70
2022/05/12 02:23:36;;;;;;;;;;;16.40;66.50;;;;;;5092123;28;19991;-70
2022/05/12 02:26:03;;;;;;;;;;;16.40;66.20;;;;;;5093151;28;19912;-71
2022/05/12 02:28:28;;;;;;;;;;;16.40;66.00;;;;;;5093525;28;19912;-70
2022/05/12 02:30:54;;;;;;;;;;;16.50;65.90;;;;;;5093144;28;20394;-70
2022/05/12 02:33:19;;;;;;;;;;;16.50;65.90;;;;;;5093330;28;19920;-70
2022/05/12 02:35:45;;;;;;;;;;;16.50;66.00;;;;;;5091732;28;19916;-71
2022/05/12 02:38:11;;;;;;;;;;;16.50;65.80;;;;;;5091713;28;19916;-70
2022/05/12 02:40:36;;;;;;;;;;;16.50;66.40;;;;;;5092921;28;19923;-71
2022/05/12 02:43:02;;;;;;;;;;;16.50;66.00;;;;;;5092883;28;19919;-71
2022/05/12 02:45:28;;;;;;;;;;;16.50;65.80;;;;;;5092870;28;19916;-72
2022/05/12 02:47:53;;;;;;;;;;;16.50;66.30;;;;;;5092803;28;19912;-72
2022/05/12 02:50:19;;;;;;;;;;;16.50;66.00;;;;;;5092873;28;20020;-69
2022/05/12 02:52:45;;;;;;;;;;;16.50;66.20;;;;;;5092708;28;20386;-70
2022/05/12 02:55:11;;;;;;;;;;;16.50;66.30;;;;;;5092558;28;19986;-70
2022/05/12 02:57:37;;;;;;;;;;;16.50;66.30;;;;;;5092816;28;19916;-72
2022/05/12 03:00:03;;;;;;;;;;;16.50;66.50;;;;;;5093133;28;19912;-70
2022/05/12 03:02:29;;;;;;;;;;;16.50;66.50;;;;;;5092583;28;19923;-71
2022/05/12 03:04:54;;;;;;;;;;;16.50;65.90;;;;;;5092966;28;19995;-71
2022/05/12 03:07:20;;;;;;;;;;;16.60;65.80;;;;;;5092339;28;20379;-71
2022/05/12 03:09:45;;;;;;;;;;;16.60;65.80;;;;;;5091277;28;19958;-71
2022/05/12 03:12:11;;;;;;;;;;;16.60;65.50;;;;;;5092352;28;20015;-70
2022/05/12 03:14:36;;;;;;;;;;;16.70;65.70;;;;;;5092696;28;20275;-71
2022/05/12 03:17:02;;;;;;;;;;;16.70;65.30;;;;;;5092580;28;20010;-70
2022/05/12 03:19:28;;;;;;;;;;;16.70;66.70;;;;;;5090691;28;19920;-71
2022/05/12 03:21:53;;;;;;;;;;;16.60;66.20;;;;;;5092420;28;19920;-71
2022/05/12 03:24:19;;;;;;;;;;;16.60;66.20;;;;;;5092545;28;19915;-71
2022/05/12 03:26:45;;;;;;;;;;;16.60;65.80;;;;;;5092065;28;19916;-71
2022/05/12 03:29:10;;;;;;;;;;;16.60;65.80;;;;;;5092439;28;20010;-71
2022/05/12 03:31:36;;;;;;;;;;;16.60;66.00;;;;;;5091857;28;19916;-71
2022/05/12 03:34:01;;;;;;;;;;;16.70;65.80;;;;;;5092267;28;19908;-72
2022/05/12 03:36:27;;;;;;;;;;;16.60;65.60;;;;;;5091990;28;19939;-69
2022/05/12 03:38:52;;;;;;;;;;;16.70;66.00;;;;;;5090813;28;19958;-70
2022/05/12 03:41:18;;;;;;;;;;;16.70;66.10;;;;;;5091987;28;19916;-70
2022/05/12 03:46:31;;;;;;;;;;;16.70;66.00;;;;;;5092342;28;19939;-71
2022/05/12 03:48:57;;;;;;;;;;;16.70;66.40;;;;;;5091830;28;19912;-70
2022/05/12 03:51:23;;;;;;;;;;;16.60;66.60;;;;;;5091283;28;20062;-71
2022/05/12 03:53:48;;;;;;;;;;;16.60;66.50;;;;;;5090303;28;19999;-71
2022/05/12 03:56:14;;;;;;;;;;;16.70;66.70;;;;;;5091796;28;19923;-70
2022/05/12 03:58:39;;;;;;;;;;;16.70;66.60;;;;;;5091747;28;20432;-71
2022/05/12 04:01:05;;;;;;;;;;;16.70;66.80;;;;;;5091589;28;19916;-71
2022/05/12 04:03:30;;;;;;;;;;;16.80;66.90;;;;;;5090251;28;19912;-70
2022/05/12 04:05:59;;;;;;;;;;;16.80;66.10;;;;;;5091628;28;19972;-70
2022/05/12 04:08:25;;;;;;;;;;;16.90;66.40;;;;;;5091637;28;19965;-70
2022/05/12 04:10:51;;;;;;;;;;;16.90;66.70;;;;;;5091985;28;20362;-71
2022/05/12 04:13:17;;;;;;;;;;;16.90;67.00;;;;;;5091464;28;19912;-70
2022/05/12 04:15:42;;;;;;;;;;;17.00;66.80;;;;;;5091625;28;20333;-71
2022/05/12 04:18:08;;;;;;;;;;;17.00;66.80;;;;;;5091728;28;20404;-70
2022/05/12 04:20:34;;;;;;;;;;;17.00;66.90;;;;;;5091216;28;19931;-71
2022/05/12 04:23:00;;;;;;;;;;;16.70;66.10;;;;;;5091498;28;20272;-70
2022/05/12 04:25:26;;;;;;;;;;;17.10;66.80;;;;;;5090018;28;19939;-71
2022/05/12 04:27:52;;;;;;;;;;;17.00;66.80;;;;;;5091167;28;19967;-71
2022/05/12 04:30:19;;;;;;;;;;;17.10;67.00;;;;;;5091656;28;20340;-70
2022/05/12 04:32:44;;;;;;;;;;;17.20;66.20;;;;;;5091130;28;19951;-73
2022/05/12 04:35:12;;;;;;;;;;;17.10;67.20;;;;;;5091099;28;19963;-70
2022/05/12 04:37:48;;;;;;;;;;;17.10;66.80;;;;;;5089895;28;19912;-70
2022/05/12 04:40:18;;;;;;;;;;;17.20;67.10;;;;;;5091646;28;19944;-71
2022/05/12 04:42:44;;;;;;;;;;;17.10;67.40;;;;;;5091334;28;19965;-70
2022/05/12 04:45:11;;;;;;;;;;;17.10;66.70;;;;;;5090076;28;20284;-71
2022/05/12 04:47:37;;;;;;;;;;;17.10;67.40;;;;;;5091161;28;19916;-72
2022/05/12 04:50:04;;;;;;;;;;;17.20;67.60;;;;;;5091744;28;19912;-71
2022/05/12 04:52:29;;;;;;;;;;;17.20;67.80;;;;;;5091301;28;19916;-72
2022/05/12 04:54:55;;;;;;;;;;;17.30;66.50;;;;;;5091661;28;20354;-70
2022/05/12 04:57:21;;;;;;;;;;;17.30;67.10;;;;;;5091198;28;20371;-71
2022/05/12 04:59:47;;;;;;;;;;;17.30;67.10;;;;;;5091534;28;20347;-72
2022/05/12 05:02:13;;;;;;;;;;;17.30;66.30;;;;;;5091832;28;19915;-69
2022/05/12 05:04:38;;;;;;;;;;;17.40;67.10;;;;;;5095281;28;20392;-71
2022/05/12 05:07:04;;;;;;;;;;;17.40;67.20;;;;;;5095104;28;19959;-70
2022/05/12 05:09:29;;;;;;;;;;;17.50;67.10;;;;;;5095044;28;19920;-70
2022/05/12 05:11:55;;;;;;;;;;;17.70;68.20;;;;;;5093581;28;19987;-70
2022/05/12 05:14:20;;;;;;;;;;;17.90;66.80;;;;;;5094999;28;20239;-69
2022/05/12 05:16:46;;;;;;;;;;;18.10;65.60;;;;;;5094803;28;20412;-70
2022/05/12 05:19:12;;;;;;;;;;;18.40;65.30;;;;;;5094788;28;19974;-71
2022/05/12 05:21:37;;;;;;;;;;;18.60;65.60;;;;;;5094804;28;20350;-70
2022/05/12 05:24:03;;;;;;;;;;;18.70;65.80;;;;;;5094654;28;19995;-69
2022/05/12 05:26:29;;;;;;;;;;;19.00;64.90;;;;;;5094698;28;19938;-70
2022/05/12 05:28:54;;;;;;;;;;;19.20;64.80;;;;;;5093025;28;20370;-69
2022/05/12 05:31:20;;;;;;;;;;;19.30;66.10;;;;;;5094397;28;20377;-69
2022/05/12 05:33:46;;;;;;;;;;;19.50;65.30;;;;;;5094574;28;19912;-70
2022/05/12 05:36:11;;;;;;;;;;;19.70;65.70;;;;;;5094246;28;19916;-71
2022/05/12 05:38:38;;;;;;;;;;;19.90;65.30;;;;;;5094533;28;19968;-70
2022/05/12 05:41:03;;;;;;;;;;;20.00;65.10;;;;;;5094313;28;19968;-71
2022/05/12 05:43:29;;;;;;;;;;;20.20;64.80;;;;;;5094366;28;19912;-70
2022/05/12 05:45:54;;;;;;;;;;;20.40;64.80;;;;;;5092676;28;19986;-69
2022/05/12 05:48:21;;;;;;;;;;;20.50;64.40;;;;;;5093938;28;19916;-69
2022/05/12 05:53:36;;;;;;;;;;;20.80;63.10;;;;;;5094509;28;19923;-69
2022/05/12 05:56:02;;;;;;;;;;;20.90;62.80;;;;;;5094319;28;19920;-69
2022/05/12 05:58:28;;;;;;;;;;;20.80;63.40;;;;;;5092538;28;19998;-70
2022/05/12 06:00:54;;;;;;;;;;;20.90;63.10;;;;;;5093878;28;20053;-69
2022/05/12 06:03:20;;;;;;;;;;;20.90;63.40;;;;;;5093650;28;20331;-69
2022/05/12 06:05:46;;;;;;;;;;;21.00;63.20;;;;;;5093557;28;19912;-70
2022/05/12 06:08:13;;;;;;;;;;;20.90;63.70;;;;;;5092162;28;19950;-69
2022/05/12 06:10:39;;;;;;;;;;;20.90;64.40;;;;;;5093625;28;19912;-71
2022/05/12 06:13:05;;;;;;;;;;;21.00;63.20;;;;;;5093230;28;20082;-70
2022/05/12 06:15:30;;;;;;;;;;;21.20;63.10;;;;;;5093531;28;19917;-70
2022/05/12 06:17:56;;;;;;;;;;;21.40;63.80;;;;;;5093431;28;19908;-70
2022/05/12 06:20:22;;;;;;;;;;;21.60;63.40;;;;;;5091899;28;20447;-69
2022/05/12 06:22:47;;;;;;;;;;;22.00;62.80;;;;;;5093532;28;19944;-70
2022/05/12 06:25:16;;;;;;;;;;;22.20;61.90;;;;;;5093780;28;19952;-70
2022/05/12 06:27:42;;;;;;;;;;;22.50;61.20;;;;;;5093471;28;20116;-69
2022/05/12 06:30:11;;;;;;;;;;;22.70;60.70;;;;;;5093817;28;19912;-70
2022/05/12 06:32:41;;;;;;;;;;;22.80;60.40;;;;;;5093344;28;19959;-71
2022/05/12 06:35:08;;;;;;;;;;;22.80;60.90;;;;;;5093669;28;20266;-71
2022/05/12 06:37:33;;;;;;;;;;;23.00;61.50;;;;;;5093512;28;19955;-71
2022/05/12 06:39:59;;;;;;;;;;;23.00;61.40;;;;;;5093739;28;19946;-70
2022/05/12 06:42:24;;;;;;;;;;;23.00;60.30;;;;;;5093602;28;19962;-72
2022/05/12 06:44:50;;;;;;;;;;;23.00;60.80;;;;;;5093582;28;19915;-71
2022/05/12 06:47:15;;;;;;;;;;;23.20;61.30;;;;;;5093012;28;20403;-71
2022/05/12 06:49:41;;;;;;;;;;;23.40;61.10;;;;;;5093291;28;19962;-71
2022/05/12 06:52:07;;;;;;;;;;;23.50;60.70;;;;;;5093125;28;19912;-71
2022/05/12 06:54:34;;;;;;;;;;;23.70;61.50;;;;;;5093302;28;19912;-71
2022/05/12 06:57:00;;;;;;;;;;;23.80;60.60;;;;;;5093051;28;20276;-71
2022/05/12 06:59:26;;;;;;;;;;;24.00;60.60;;;;;;5093225;28;19912;-70
2022/05/12 07:01:51;;;;;;;;;;;24.20;61.10;;;;;;5093033;28;19912;-69
2022/05/12 07:04:18;;;;;;;;;;;24.20;60.20;;;;;;5092900;28;19916;-70
2022/05/12 07:06:44;;;;;;;;;;;24.20;60.10;;;;;;5091425;28;19912;-70
2022/05/12 07:09:09;;;;;;;;;;;24.10;60.20;;;;;;5093075;28;19916;-71
2022/05/12 07:11:35;;;;;;;;;;;24.00;60.80;;;;;;5092686;28;20470;-70
2022/05/12 07:14:00;;;;;;;;;;;23.90;61.20;;;;;;5092518;28;19916;-70
2022/05/12 07:16:26;;;;;;;;;;;24.30;61.90;;;;;;5092451;28;20002;-70
2022/05/12 07:18:51;;;;;;;;;;;24.60;60.20;;;;;;5092622;28;19916;-70
2022/05/12 07:26:47;;;;;;;;;;;24.90;60.20;;;;;;5091817;28;19933;-70
2022/05/12 07:29:18;;;;;;;;;;;25.20;59.90;;;;;;5090843;28;19920;-70
2022/05/12 07:31:44;;;;;;;;;;;25.30;59.60;;;;;;5092165;28;20390;-71
2022/05/12 07:34:10;;;;;;;;;;;25.40;59.90;;;;;;5092480;28;19913;-70
2022/05/12 07:36:38;;;;;;;;;;;25.40;60.10;;;;;;5092387;28;19916;-69
2022/05/12 07:39:04;;;;;;;;;;;25.50;60.40;;;;;;5074044;28;19912;-70
2022/05/12 07:41:29;;;;;;;;;;;25.60;60.60;;;;;;5092172;28;19919;-70
2022/05/12 07:43:55;;;;;;;;;;;25.70;61.50;;;;;;5092020;28;19916;-69
2022/05/12 07:46:22;;;;;;;;;;;25.80;61.10;;;;;;5091949;28;20345;-69
2022/05/12 07:48:48;;;;;;;;;;;26.10;61.00;;;;;;5092048;28;19923;-70
2022/05/12 07:51:14;;;;;;;;;;;26.30;61.20;;;;;;5091958;28;20352;-71
2022/05/12 07:53:40;;;;;;;;;;;26.40;61.20;;;;;;5092496;28;19939;-69
2022/05/12 07:56:06;;;;;;;;;;;26.40;61.50;;;;;;5092186;28;19951;-71
2022/05/12 07:58:32;;;;;;;;;;;26.50;60.90;;;;;;5092067;28;19919;-69
2022/05/12 08:00:57;;;;;;;;;;;26.60;61.50;;;;;;5091622;28;19923;-69
2022/05/12 08:03:24;;;;;;;;;;;26.70;60.60;;;;;;5091710;28;19908;-69
2022/05/12 08:05:50;;;;;;;;;;;26.60;61.10;;;;;;5091799;28;19961;-70
2022/05/12 08:08:16;;;;;;;;;;;26.80;61.10;;;;;;5091527;28;19916;-71
2022/05/12 08:10:41;;;;;;;;;;;27.00;61.30;;;;;;5091691;28;19927;-69
2022/05/12 08:13:14;;;;;;;;;;;27.10;60.50;;;;;;5091625;28;19915;-69
2022/05/12 08:15:44;;;;;;;;;;;27.20;61.00;;;;;;5091267;28;19927;-69
2022/05/12 08:18:10;;;;;;;;;;;26.90;60.70;;;;;;5091523;28;19912;-70
2022/05/12 08:20:36;;;;;;;;;;;26.90;61.10;;;;;;5091209;28;19947;-68
2022/05/12 08:23:01;;;;;;;;;;;26.90;61.30;;;;;;5091429;28;20311;-70
2022/05/12 08:25:27;;;;;;;;;;;27.10;62.60;;;;;;5091379;28;19912;-69
2022/05/12 08:27:52;;;;;;;;;;;27.20;61.40;;;;;;5091194;28;19919;-69
2022/05/12 08:30:19;;;;;;;;;;;27.00;61.90;;;;;;5091431;28;20421;-68
2022/05/12 08:32:45;;;;;;;;;;;26.90;62.50;;;;;;5091680;28;20278;-68
2022/05/12 08:35:10;;;;;;;;;;;27.10;63.00;;;;;;5091943;28;19916;-70
2022/05/12 08:37:36;;;;;;;;;;;27.20;62.10;;;;;;5094360;28;20375;-69
2022/05/12 08:40:02;;;;;;;;;;;27.40;62.40;;;;;;5095743;28;19916;-69
2022/05/12 08:42:45;;;;;;;;;;;27.70;62.60;;;;;;5095437;28;19951;-69
2022/05/12 08:45:12;;;;;;;;;;;28.20;61.10;;;;;;5095833;28;19963;-69
2022/05/12 08:47:42;;;;;;;;;;;28.50;61.30;;;;;;5095260;28;19962;-69
2022/05/12 08:50:08;;;;;;;;;;;28.80;60.10;;;;;;5095892;28;19912;-69
2022/05/12 08:52:46;;;;;;;;;;;28.90;60.00;;;;;;5095692;28;19919;-68
2022/05/12 08:55:25;;;;;;;;;;;28.60;60.00;;;;;;5095806;28;19920;-69
2022/05/12 08:58:22;;;;;;;;;;;28.20;60.30;;;;;;5095345;28;19939;-69
2022/05/12 09:01:14;;;;;;;;;;;28.10;60.70;;;;;;5060577;28;20383;-69
2022/05/12 09:03:59;;;;;;;;;;;27.80;61.00;;;;;;5092060;28;20051;-68
2022/05/12 09:06:43;;;;;;;;;;;27.60;61.60;;;;;;5094936;28;19927;-68
2022/05/12 09:09:15;;;;;;;;;;;27.60;61.50;;;;;;5094919;28;19915;-68
2022/05/12 09:11:46;;;;;;;;;;;27.80;61.60;;;;;;5094629;28;20256;-69
2022/05/12 09:14:15;;;;;;;;;;;27.70;61.50;;;;;;5093279;28;19924;-70
2022/05/12 09:16:41;;;;;;;;;;;27.60;61.60;;;;;;5094590;28;20341;-69
2022/05/12 09:19:19;;;;;;;;;;;27.40;61.70;;;;;;5094644;28;19912;-69
2022/05/12 09:21:45;;;;;;;;;;;27.20;62.90;;;;;;5095086;28;19916;-68
2022/05/12 09:24:11;;;;;;;;;;;27.50;62.60;;;;;;5094856;28;19937;-68
2022/05/12 09:26:39;;;;;;;;;;;27.80;62.40;;;;;;5094607;28;20336;-67
2022/05/12 09:29:08;;;;;;;;;;;28.20;61.80;;;;;;5094823;28;20357;-68
2022/05/12 09:31:34;;;;;;;;;;;28.10;60.90;;;;;;5094427;28;19965;-68
2022/05/12 09:34:12;;;;;;;;;;;28.00;61.50;;;;;;5094746;28;19920;-68
2022/05/12 09:36:38;;;;;;;;;;;28.20;61.90;;;;;;5094441;28;19912;-69
2022/05/12 09:39:03;;;;;;;;;;;28.40;61.60;;;;;;5094744;28;19912;-70
2022/05/12 09:41:42;;;;;;;;;;;28.60;60.60;;;;;;5094509;28;19936;-69
2022/05/12 09:44:15;;;;;;;;;;;28.60;61.40;;;;;;5094679;28;20306;-68
2022/05/12 09:46:41;;;;;;;;;;;28.80;59.70;;;;;;5094410;28;19920;-68
2022/05/12 09:49:20;;;;;;;;;;;28.50;60.30;;;;;;5093449;28;19916;-68
2022/05/12 09:51:46;;;;;;;;;;;28.30;60.40;;;;;;5094194;28;19912;-68
2022/05/12 09:54:16;;;;;;;;;;;28.20;60.80;;;;;;5094266;28;20272;-67
2022/05/12 09:56:46;;;;;;;;;;;28.50;61.50;;;;;;5094128;28;20371;-68
2022/05/12 09:59:14;;;;;;;;;;;28.90;60.20;;;;;;5094221;28;19916;-69
2022/05/12 10:01:54;;;;;;;;;;;29.20;60.00;;;;;;5093923;28;19961;-68
2022/05/12 10:10:21;;;;;;;;;;;29.70;59.30;;;;;;5094590;28;19922;-68
2022/05/12 10:12:47;;;;;;;;;;;29.80;58.70;;;;;;5093170;28;19912;-68
2022/05/12 10:15:17;;;;;;;;;;;30.20;58.60;;;;;;5094126;28;20015;-68
2022/05/12 10:17:45;;;;;;;;;;;30.40;57.60;;;;;;5093684;28;20019;-69
2022/05/12 10:20:18;;;;;;;;;;;30.50;57.00;;;;;;5093765;28;19920;-69
2022/05/12 10:23:02;;;;;;;;;;;30.40;57.40;;;;;;5093899;28;19961;-69
2022/05/12 10:25:33;;;;;;;;;;;30.50;57.50;;;;;;5093598;28;20015;-67
2022/05/12 10:28:15;;;;;;;;;;;30.80;56.70;;;;;;5091756;28;19972;-69
2022/05/12 10:30:45;;;;;;;;;;;30.90;56.50;;;;;;5093471;28;20377;-69
2022/05/12 10:33:16;;;;;;;;;;;31.30;56.00;;;;;;5093558;28;19915;-69
2022/05/12 10:35:55;;;;;;;;;;;30.90;56.60;;;;;;5093284;28;19959;-69
2022/05/12 10:38:21;;;;;;;;;;;31.10;57.20;;;;;;5093506;28;19934;-69
2022/05/12 10:40:50;;;;;;;;;;;31.50;56.60;;;;;;5093605;28;19912;-69
2022/05/12 10:43:15;;;;;;;;;;;31.40;56.50;;;;;;5093382;28;19912;-68
2022/05/12 10:46:00;;;;;;;;;;;31.30;55.80;;;;;;5093229;28;19973;-69
2022/05/12 10:48:48;;;;;;;;;;;31.00;55.80;;;;;;5091555;28;20364;-69
2022/05/12 10:51:46;;;;;;;;;;;31.20;56.50;;;;;;5093177;28;20313;-68
2022/05/12 10:54:31;;;;;;;;;;;30.90;56.10;;;;;;5058384;28;19916;-68
2022/05/12 10:57:06;;;;;;;;;;;30.70;56.60;;;;;;5093074;28;19938;-69
2022/05/12 10:59:31;;;;;;;;;;;31.20;56.60;;;;;;5092002;28;19923;-70
2022/05/12 11:02:03;;;;;;;;;;;31.40;56.10;;;;;;5092195;28;19916;-72
2022/05/12 11:04:31;;;;;;;;;;;31.20;56.00;;;;;;5092763;28;19973;-70
2022/05/12 11:07:00;;;;;;;;;;;31.30;56.00;;;;;;5092318;28;19918;-71
2022/05/12 11:09:29;;;;;;;;;;;31.30;56.00;;;;;;5092530;28;19916;-70
2022/05/12 11:11:56;;;;;;;;;;;31.10;55.80;;;;;;5092533;28;19955;-70
2022/05/12 11:14:44;;;;;;;;;;;30.90;56.10;;;;;;5091937;28;19915;-70
2022/05/12 11:17:28;;;;;;;;;;;30.60;56.60;;;;;;5092363;28;20007;-70
2022/05/12 11:19:59;;;;;;;;;;;30.70;56.80;;;;;;5092123;28;19920;-69
2022/05/12 11:22:28;;;;;;;;;;;31.00;56.50;;;;;;5092449;28;20336;-70
2022/05/12 11:24:58;;;;;;;;;;;31.60;56.30;;;;;;5092766;28;19920;-71
2022/05/12 11:27:46;;;;;;;;;;;31.50;55.70;;;;;;5090955;28;20375;-71
2022/05/12 11:30:27;;;;;;;;;;;30.90;55.90;;;;;;5092710;28;20298;-70
2022/05/12 11:32:53;;;;;;;;;;;30.50;56.40;;;;;;5091829;28;19916;-71
2022/05/12 11:35:23;;;;;;;;;;;30.40;57.00;;;;;;5092031;28;19961;-69
2022/05/12 11:37:50;;;;;;;;;;;30.30;55.90;;;;;;5090839;28;19914;-69
2022/05/12 11:40:35;;;;;;;;;;;30.00;56.80;;;;;;5092572;28;19912;-70
2022/05/12 11:45:48;;;;;;;;;;;29.40;57.60;;;;;;5091441;28;19935;-70
2022/05/12 11:48:13;;;;;;;;;;;29.80;58.30;;;;;;5091687;28;19949;-69
2022/05/12 11:50:45;;;;;;;;;;;30.00;56.90;;;;;;5090448;28;19913;-69
2022/05/12 11:53:12;;;;;;;;;;;29.80;57.00;;;;;;5091842;28;19912;-71
2022/05/12 11:55:53;;;;;;;;;;;29.60;57.20;;;;;;5091787;28;20286;-70
2022/05/12 11:58:28;;;;;;;;;;;30.10;57.50;;;;;;5091950;28;19912;-71
2022/05/12 12:00:56;;;;;;;;;;;29.90;56.60;;;;;;5091973;28;20368;-70
2022/05/12 12:03:22;;;;;;;;;;;29.60;56.80;;;;;;5091814;28;19916;-72
2022/05/12 12:05:47;;;;;;;;;;;29.60;57.00;;;;;;5091826;28;19954;-72
2022/05/12 12:08:33;;;;;;;;;;;29.60;56.80;;;;;;5091564;28;19971;-70
2022/05/12 12:11:13;;;;;;;;;;;29.60;57.00;;;;;;5091133;28;20278;-70
2022/05/12 12:13:43;;;;;;;;;;;29.70;57.00;;;;;;5091646;28;19919;-70
2022/05/12 12:16:13;;;;;;;;;;;29.80;57.50;;;;;;5091347;28;19999;-70
2022/05/12 12:18:39;;;;;;;;;;;29.90;57.10;;;;;;5091470;28;19912;-70
2022/05/12 12:21:23;;;;;;;;;;;29.90;56.60;;;;;;5089929;28;19973;-71
2022/05/12 12:24:03;;;;;;;;;;;29.90;57.50;;;;;;5091727;28;19966;-70
2022/05/12 12:26:34;;;;;;;;;;;29.90;57.00;;;;;;5091639;28;19916;-69
2022/05/12 12:29:09;;;;;;;;;;;29.90;56.50;;;;;;5090166;28;20370;-69
2022/05/12 12:31:37;;;;;;;;;;;29.80;57.00;;;;;;5091328;28;19919;-69
2022/05/12 12:34:14;;;;;;;;;;;29.70;57.60;;;;;;5091610;28;19916;-71
2022/05/12 12:36:41;;;;;;;;;;;29.60;57.20;;;;;;5091464;28;20283;-71
2022/05/12 12:39:09;;;;;;;;;;;29.60;56.80;;;;;;5090321;28;20428;-71
2022/05/12 12:41:36;;;;;;;;;;;29.60;57.10;;;;;;5091395;28;19912;-70
2022/05/12 12:44:09;;;;;;;;;;;29.50;56.80;;;;;;5091217;28;19912;-68
2022/05/12 12:46:53;;;;;;;;;;;29.40;57.30;;;;;;5091267;28;19942;-69
2022/05/12 12:49:21;;;;;;;;;;;29.50;57.70;;;;;;5091204;28;19924;-70
2022/05/12 12:51:57;;;;;;;;;;;29.40;57.40;;;;;;5091137;28;19912;-69
2022/05/12 12:57:16;;;;;;;;;;;29.30;57.20;;;;;;5091229;28;20020;-69
2022/05/12 12:59:46;;;;;;;;;;;29.10;56.40;;;;;;5091641;28;19912;-69
2022/05/12 13:02:44;;;;;;;;;;;29.00;56.40;;;;;;5091134;28;19938;-69
2022/05/12 13:05:20;;;;;;;;;;;29.00;56.70;;;;;;5056405;28;19912;-70
2022/05/12 13:07:56;;;;;;;;;;;29.10;56.30;;;;;;5090968;28;19920;-69
2022/05/12 13:10:22;;;;;;;;;;;29.10;56.00;;;;;;5091015;28;19920;-69
2022/05/12 13:12:52;;;;;;;;;;;29.10;56.00;;;;;;5091117;28;19908;-69
2022/05/12 13:15:19;;;;;;;;;;;29.20;56.20;;;;;;5089602;28;19970;-69
2022/05/12 13:17:48;;;;;;;;;;;29.10;55.90;;;;;;5091015;28;19912;-69
2022/05/12 13:20:19;;;;;;;;;;;28.90;56.70;;;;;;5090635;28;19930;-70
2022/05/12 13:22:46;;;;;;;;;;;28.60;56.40;;;;;;5090762;28;20375;-70
2022/05/12 13:25:15;;;;;;;;;;;28.50;56.70;;;;;;5094729;28;19972;-70
2022/05/12 13:27:41;;;;;;;;;;;28.50;56.90;;;;;;5094426;28;20010;-69
2022/05/12 13:30:13;;;;;;;;;;;28.60;57.10;;;;;;5094987;28;19913;-70
2022/05/12 13:32:46;;;;;;;;;;;28.70;57.10;;;;;;5094701;28;20290;-69
2022/05/12 13:35:16;;;;;;;;;;;28.70;57.10;;;;;;5093325;28;19985;-70
2022/05/12 13:37:50;;;;;;;;;;;28.70;57.30;;;;;;5094526;28;19916;-71
2022/05/12 13:40:34;;;;;;;;;;;28.60;57.40;;;;;;5094664;28;20473;-71
2022/05/12 13:42:59;;;;;;;;;;;28.80;57.70;;;;;;5094234;28;20002;-70
2022/05/12 13:45:26;;;;;;;;;;;28.80;57.40;;;;;;5094215;28;20019;-69
2022/05/12 13:47:54;;;;;;;;;;;28.90;57.80;;;;;;5094053;28;19916;-69
2022/05/12 13:50:20;;;;;;;;;;;28.70;57.50;;;;;;5092840;28;19916;-69
2022/05/12 13:52:47;;;;;;;;;;;28.70;57.60;;;;;;5094176;28;20278;-69
2022/05/12 13:55:18;;;;;;;;;;;28.60;57.60;;;;;;5094364;28;19916;-70
2022/05/12 13:57:45;;;;;;;;;;;28.60;58.10;;;;;;5093890;28;19977;-69
2022/05/12 14:00:11;;;;;;;;;;;28.60;57.50;;;;;;5094323;28;20011;-70
2022/05/12 14:02:38;;;;;;;;;;;28.40;57.70;;;;;;5093531;28;19994;-70
2022/05/12 14:05:09;;;;;;;;;;;28.50;57.80;;;;;;5094094;28;19913;-70
2022/05/12 14:07:35;;;;;;;;;;;28.50;57.80;;;;;;5093777;28;19996;-69
2022/05/12 14:10:18;;;;;;;;;;;28.60;57.10;;;;;;5093984;28;19999;-69
2022/05/12 14:20:56;;;;;;;;;;;28.60;56.20;;;;;;5093262;28;19935;-70
2022/05/12 14:23:22;;;;;;;;;;;28.60;56.00;;;;;;5093498;28;19912;-71
2022/05/12 14:25:48;;;;;;;;;;;28.60;55.70;;;;;;5093268;28;19916;-70
2022/05/12 14:28:13;;;;;;;;;;;28.50;55.60;;;;;;5093103;28;20279;-70
2022/05/12 14:30:39;;;;;;;;;;;28.50;55.60;;;;;;5093188;28;19912;-70
2022/05/12 14:33:04;;;;;;;;;;;28.40;55.40;;;;;;5093154;28;19908;-70
2022/05/12 14:35:30;;;;;;;;;;;28.40;55.50;;;;;;5093091;28;19919;-70
2022/05/12 14:37:55;;;;;;;;;;;28.40;55.70;;;;;;5093198;28;19908;-70
2022/05/12 14:40:22;;;;;;;;;;;28.30;56.00;;;;;;5091851;28;19916;-69
2022/05/12 14:42:48;;;;;;;;;;;28.40;55.40;;;;;;5093296;28;20371;-70
2022/05/12 14:45:14;;;;;;;;;;;28.50;55.40;;;;;;5093811;28;19916;-70
2022/05/12 14:47:42;;;;;;;;;;;28.50;55.50;;;;;;5091666;28;20401;-70
2022/05/12 14:50:08;;;;;;;;;;;28.50;55.90;;;;;;5093718;28;19939;-69
2022/05/12 14:52:34;;;;;;;;;;;28.40;55.30;;;;;;5093194;28;19919;-71
2022/05/12 14:55:00;;;;;;;;;;;28.40;55.10;;;;;;5091529;28;19916;-71